createdAt,value
2023-10-10T00:00:14.599Z,350.93
2023-10-10T00:05:27.535Z,349.45
2023-10-10T00:10:26.376Z,353.92
2023-10-10T00:15:26.298Z,353.55
2023-10-10T00:20:26.256Z,356.20
2023-10-10T00:25:26.171Z,355.44
2023-10-10T00:30:26.098Z,358.51
2023-10-10T00:35:26.055Z,358.12
2023-10-10T00:40:25.953Z,356.97
2023-10-10T00:45:25.925Z,362.43
2023-10-10T00:50:25.844Z,362.03
2023-10-10T00:55:25.771Z,365.62
2023-10-10T01:00:25.681Z,364.02
2023-10-10T01:05:25.708Z,366.83
2023-10-10T01:10:25.543Z,367.65
2023-10-10T01:15:25.502Z,367.24
2023-10-10T01:20:25.494Z,369.28
2023-10-10T01:25:25.374Z,370.94
2023-10-10T01:30:25.255Z,372.18
2023-10-10T01:35:25.264Z,373.44
2023-10-10T01:40:25.149Z,370.94
2023-10-10T01:45:25.133Z,374.28
2023-10-10T01:50:25.057Z,375.98
2023-10-10T01:55:24.956Z,378.62
2023-10-10T02:00:24.915Z,378.83
2023-10-10T02:05:24.868Z,381.62
2023-10-10T02:10:24.729Z,381.19
2023-10-10T02:15:24.678Z,385.33
2023-10-10T02:20:24.721Z,383.36
2023-10-10T02:25:24.582Z,383.36
2023-10-10T02:30:24.481Z,385.11
2023-10-10T02:35:24.442Z,386.21
2023-10-10T02:40:24.348Z,386.88
2023-10-10T02:45:24.291Z,388.88
2023-10-10T02:50:24.216Z,387.77
2023-10-10T02:55:24.328Z,387.32
2023-10-10T03:00:24.088Z,389.11
2023-10-10T03:05:24.045Z,391.37
2023-10-10T03:10:24.626Z,390.91
2023-10-10T03:15:23.880Z,392.05
2023-10-10T03:20:23.863Z,394.11
2023-10-10T03:25:23.725Z,393.42
2023-10-10T03:30:23.669Z,392.51
2023-10-10T03:35:23.625Z,393.19
2023-10-10T03:40:23.507Z,394.34
2023-10-10T03:45:23.493Z,397.36
2023-10-10T03:50:23.475Z,395.27
2023-10-10T03:55:23.336Z,397.83
2023-10-10T04:00:23.346Z,399.24
2023-10-10T04:05:27.898Z,399.24
2023-10-10T04:10:24.132Z,399.48
2023-10-10T04:15:34.629Z,397.36
2023-10-10T04:20:34.545Z,398.77
2023-10-10T04:25:34.463Z,400.67
2023-10-10T04:30:34.415Z,399.72
2023-10-10T04:35:34.428Z,401.62
2023-10-10T04:40:34.235Z,403.55
2023-10-10T04:45:34.189Z,404.03
2023-10-10T04:50:34.157Z,404.51
2023-10-10T04:55:34.061Z,407.69
2023-10-10T05:00:33.995Z,406.46
2023-10-10T05:05:33.966Z,406.46
2023-10-10T05:10:33.824Z,408.68
2023-10-10T05:15:33.851Z,408.68
2023-10-10T05:20:33.773Z,407.94
2023-10-10T05:25:33.641Z,410.17
2023-10-10T05:30:33.561Z,410.67
2023-10-10T05:35:33.545Z,410.17
2023-10-10T05:40:33.421Z,413.44
2023-10-10T05:45:33.415Z,411.93
2023-10-10T05:50:33.301Z,411.42
2023-10-10T05:55:33.235Z,413.19
2023-10-10T06:00:33.159Z,413.44
2023-10-10T06:05:33.159Z,410.92
2023-10-10T06:10:32.998Z,414.20
2023-10-10T06:15:32.962Z,412.43
2023-10-10T06:20:32.939Z,410.67
2023-10-10T06:25:32.811Z,408.68
2023-10-10T06:30:32.807Z,405.98
2023-10-10T06:35:32.743Z,404.27
2023-10-10T06:40:32.595Z,402.58
2023-10-10T06:45:32.592Z,403.55
2023-10-10T06:50:32.545Z,399.24
2023-10-10T06:55:32.435Z,401.14
2023-10-10T07:00:32.358Z,396.66
2023-10-10T07:05:32.366Z,391.37
2023-10-10T07:10:32.232Z,382.27
2023-10-10T07:15:32.167Z,373.02
2023-10-10T07:20:32.101Z,360.46
2023-10-10T07:25:32.075Z,349.82
2023-10-10T07:30:31.993Z,337.37
2023-10-10T07:35:31.949Z,327.71
2023-10-10T07:40:31.842Z,317.36
2023-10-10T07:45:31.744Z,306.23
2023-10-10T07:50:31.768Z,297.71
2023-10-10T07:55:31.615Z,287.90
2023-10-10T08:00:31.536Z,283.71
2023-10-10T08:05:31.554Z,270.75
2023-10-10T08:10:31.601Z,259.73
2023-10-10T08:15:31.352Z,258.51
2023-10-10T08:20:31.363Z,252.03
2023-10-10T08:25:31.285Z,243.52
2023-10-10T08:30:31.222Z,238.96
2023-10-10T08:35:31.760Z,233.09
2023-10-10T08:40:30.996Z,228.75
2023-10-10T08:45:30.969Z,223.81
2023-10-10T08:50:30.931Z,217.79
2023-10-10T08:55:30.825Z,211.41
2023-10-10T09:00:30.816Z,202.75
2023-10-10T09:05:30.800Z,196.39
2023-10-10T09:10:30.642Z,190.31
2023-10-10T09:15:30.575Z,184.83
2023-10-10T09:20:30.588Z,175.96
2023-10-10T09:25:30.404Z,167.91
2023-10-10T09:30:30.387Z,160.56
2023-10-10T09:35:30.335Z,155.96
2023-10-10T09:40:30.190Z,151.07
2023-10-10T09:45:30.304Z,144.60
2023-10-10T09:50:30.135Z,140.39
2023-10-10T09:55:30.024Z,136.64
2023-10-10T10:00:29.969Z,133.08
2023-10-10T10:05:30.702Z,130.21
2023-10-10T10:10:29.814Z,128.91
2023-10-10T10:15:29.821Z,129.01
2023-10-10T10:20:29.736Z,127.55
2023-10-10T10:25:29.677Z,127.55
2023-10-10T10:30:29.575Z,125.65
2023-10-10T10:35:29.518Z,126.12
2023-10-10T10:40:29.428Z,125.65
2023-10-10T10:45:29.388Z,128.82
2023-10-10T10:50:29.325Z,128.13
2023-10-10T10:55:29.289Z,129.31
2023-10-10T11:00:29.234Z,129.01
2023-10-10T11:05:29.150Z,129.91
2023-10-10T11:10:29.077Z,130.21
2023-10-10T11:15:28.981Z,129.11
2023-10-10T11:20:29.012Z,130.11
2023-10-10T11:25:28.835Z,130.01
2023-10-10T11:30:28.755Z,130.91
2023-10-10T11:35:28.748Z,130.71
2023-10-10T11:40:28.681Z,129.71
2023-10-10T11:45:28.747Z,128.91
2023-10-10T11:50:28.667Z,129.01
2023-10-10T11:55:28.577Z,128.03
2023-10-10T12:00:28.649Z,127.36
2023-10-10T12:05:28.356Z,126.50
2023-10-10T12:10:28.270Z,124.91
2023-10-10T12:15:28.195Z,124.08
2023-10-10T12:20:28.151Z,122.55
2023-10-10T12:25:28.058Z,122.73
2023-10-10T12:30:28.874Z,123.54
2023-10-10T12:35:27.957Z,124.63
2023-10-10T12:40:27.900Z,127.36
2023-10-10T12:45:27.790Z,128.82
2023-10-10T12:50:27.710Z,131.73
2023-10-10T12:55:27.653Z,134.78
2023-10-10T13:00:27.583Z,137.20
2023-10-10T13:05:27.570Z,138.66
2023-10-10T13:10:27.458Z,141.45
2023-10-10T13:15:27.429Z,142.40
2023-10-10T13:20:27.341Z,144.73
2023-10-10T13:25:27.254Z,145.35
2023-10-10T13:30:27.191Z,148.03
2023-10-10T13:35:27.162Z,149.87
2023-10-10T13:40:27.041Z,151.75
2023-10-10T13:45:27.013Z,152.58
2023-10-10T13:50:26.945Z,153.41
2023-10-10T13:55:26.874Z,155.10
2023-10-10T14:00:26.769Z,155.82
2023-10-10T14:05:26.756Z,156.39
2023-10-10T14:10:26.652Z,157.27
2023-10-10T14:15:26.588Z,158.45
2023-10-10T14:20:26.855Z,159.20
2023-10-10T14:25:26.489Z,160.71
2023-10-10T14:30:26.384Z,161.17
2023-10-10T14:35:26.467Z,160.87
2023-10-10T14:40:26.231Z,161.79
2023-10-10T14:45:26.220Z,163.36
2023-10-10T14:50:26.216Z,163.83
2023-10-10T14:55:26.083Z,165.12
2023-10-10T15:00:26.008Z,166.75
2023-10-10T15:05:26.063Z,168.24
2023-10-10T15:10:25.849Z,169.77
2023-10-10T15:15:25.801Z,169.77
2023-10-10T15:20:25.734Z,171.32
2023-10-10T15:25:25.647Z,173.43
2023-10-10T15:30:25.616Z,174.51
2023-10-10T15:35:25.555Z,175.78
2023-10-10T15:40:25.502Z,177.82
2023-10-10T15:45:25.385Z,178.76
2023-10-10T15:50:26.250Z,180.87
2023-10-10T15:55:26.374Z,182.83
2023-10-10T16:00:25.352Z,183.03
2023-10-10T16:05:25.573Z,184.83
2023-10-10T16:10:25.032Z,185.42
2023-10-10T16:15:30.898Z,187.30
2023-10-10T16:20:26.020Z,187.72
2023-10-10T16:25:24.814Z,190.64
2023-10-10T16:30:24.790Z,192.85
2023-10-10T16:35:24.721Z,194.32
2023-10-10T16:40:24.621Z,196.74
2023-10-10T16:45:24.566Z,198.74
2023-10-10T16:50:24.516Z,199.70
2023-10-10T16:55:24.441Z,202.26
2023-10-10T17:00:24.384Z,203.37
2023-10-10T17:05:24.369Z,206.15
2023-10-10T17:10:24.276Z,208.22
2023-10-10T17:15:24.150Z,211.41
2023-10-10T17:20:24.105Z,212.22
2023-10-10T17:25:24.173Z,214.69
2023-10-10T17:30:23.964Z,217.22
2023-10-10T17:35:24.003Z,220.25
2023-10-10T17:40:23.829Z,222.16
2023-10-10T17:45:23.753Z,224.42
2023-10-10T17:50:23.773Z,226.25
2023-10-10T17:55:23.637Z,230.18
2023-10-10T18:00:23.549Z,230.34
2023-10-10T18:05:23.520Z,234.07
2023-10-10T18:10:23.416Z,234.90
2023-10-10T18:15:23.418Z,238.11
2023-10-10T18:20:24.190Z,238.79
2023-10-10T18:25:23.232Z,242.28
2023-10-10T18:30:23.164Z,241.93
2023-10-10T18:35:23.093Z,244.24
2023-10-10T18:40:23.000Z,246.78
2023-10-10T18:45:22.950Z,248.08
2023-10-10T18:50:22.972Z,250.51
2023-10-10T18:55:22.818Z,252.23
2023-10-10T19:00:22.760Z,252.80
2023-10-10T19:05:22.661Z,255.33
2023-10-10T19:10:25.053Z,255.72
2023-10-10T19:15:22.563Z,258.71
2023-10-10T19:20:25.301Z,258.51
2023-10-10T19:25:22.455Z,259.32
2023-10-10T19:30:22.337Z,261.78
2023-10-10T19:35:22.785Z,262.19
2023-10-10T19:40:22.245Z,263.02
2023-10-10T19:45:25.629Z,263.44
2023-10-10T19:50:22.073Z,263.86
2023-10-10T19:55:22.769Z,263.44
2023-10-10T20:00:21.944Z,264.70
2023-10-10T20:05:22.125Z,266.40
2023-10-10T20:10:21.797Z,266.40
2023-10-10T20:15:21.808Z,266.83
2023-10-10T20:20:21.670Z,266.83
2023-10-10T20:25:21.647Z,268.56
2023-10-10T20:30:21.565Z,270.31
2023-10-10T20:35:21.466Z,269.21
2023-10-10T20:40:21.397Z,271.41
2023-10-10T20:45:21.355Z,269.43
2023-10-10T20:50:21.370Z,271.64
2023-10-10T20:55:21.234Z,271.64
2023-10-10T21:00:21.138Z,271.86
2023-10-10T21:05:21.068Z,272.08
2023-10-10T21:10:20.999Z,272.53
2023-10-10T21:15:20.950Z,273.20
2023-10-10T21:20:20.853Z,273.20
2023-10-10T21:25:20.820Z,272.53
2023-10-10T21:30:20.744Z,273.65
2023-10-10T21:35:20.803Z,273.88
2023-10-10T21:40:20.606Z,275.24
2023-10-10T21:45:20.838Z,274.78
2023-10-10T21:50:20.460Z,275.24
2023-10-10T21:55:20.451Z,273.88
2023-10-10T22:00:20.314Z,274.56
2023-10-10T22:05:20.278Z,275.47
2023-10-10T22:10:20.176Z,275.24
2023-10-10T22:15:20.103Z,274.10
2023-10-10T22:20:20.043Z,276.16
2023-10-10T22:25:20.022Z,277.31
2023-10-10T22:30:19.916Z,276.85
2023-10-10T22:35:19.887Z,278.71
2023-10-10T22:40:19.825Z,276.62
2023-10-10T22:45:19.696Z,277.31
2023-10-10T22:50:19.689Z,278.94
2023-10-10T22:55:19.604Z,280.12
2023-10-10T23:00:19.492Z,280.83
2023-10-10T23:05:19.456Z,280.12
2023-10-10T23:10:19.392Z,280.59
2023-10-10T23:15:19.330Z,281.31
2023-10-10T23:20:19.237Z,282.75
2023-10-10T23:25:19.192Z,284.69
2023-10-10T23:30:19.108Z,284.69
2023-10-10T23:35:19.040Z,286.65
2023-10-10T23:40:18.974Z,287.90
2023-10-10T23:45:18.978Z,290.16
2023-10-10T23:50:18.852Z,291.69
2023-10-10T23:55:18.776Z,291.95
